KPTB/PTB METAR and TAF weather

Enter ICAO airport designator
Station Type Date Time Source
KPTB METAR 2021/05/13 04:55 UTC NOAA

KPTB 130455Z AUTO 00000KT 10SM CLR 04/02 A3025 RMK AO2 T00360024 401600033


Station Type Date Time Source
KPTB Decoded METAR 2021/05/13 04:55 UTC NOAA

Petersburg, Dinwiddie County Airport, VA, United States (KPTB) 37-11N 077-31W
May 13, 2021 - 12:55 AM EDT / 2021.05.13 0455 UTC
Wind: Calm:0
Visibility: 10 mile(s):0
Sky conditions: clear
Temperature: 38.5 F (3.6 C)
Dew Point: 36.3 F (2.4 C)
Relative Humidity: 91%
Pressure (altimeter): 30.25 in. Hg (1024 hPa)
ob: KPTB 130455Z AUTO 00000KT 10SM CLR 04/02 A3025 RMK AO2 T00360024 401600033
cycle: 5

Station Type Date Time Source
KPTB TAF UTC NOAA

Error!

Example: see airport list